sensor_id;sensor_type;location;lat;lon;timestamp;P1;durP1;ratioP1;P2;durP2;ratioP2
11279;SDS011;5696;50.928;6.960;2023-02-24T05:36:21;19.42;;;7.47;;
11279;SDS011;5696;50.928;6.960;2023-02-24T05:38:50;17.13;;;7.07;;
11279;SDS011;5696;50.928;6.960;2023-02-24T05:41:29;21.05;;;6.53;;
11279;SDS011;5696;50.928;6.960;2023-02-24T05:44:00;18.13;;;7.00;;
11279;SDS011;5696;50.928;6.960;2023-02-24T05:46:31;22.08;;;6.95;;
11279;SDS011;5696;50.928;6.960;2023-02-24T05:49:03;15.18;;;6.82;;
11279;SDS011;5696;50.928;6.960;2023-02-24T05:51:39;18.08;;;6.95;;
11279;SDS011;5696;50.928;6.960;2023-02-24T05:54:11;19.13;;;6.47;;
11279;SDS011;5696;50.928;6.960;2023-02-24T05:56:38;19.35;;;6.97;;
11279;SDS011;5696;50.928;6.960;2023-02-24T05:59:08;15.27;;;6.47;;
11279;SDS011;5696;50.928;6.960;2023-02-24T06:01:36;18.17;;;6.35;;
11279;SDS011;5696;50.928;6.960;2023-02-24T06:04:05;14.07;;;6.25;;
11279;SDS011;5696;50.928;6.960;2023-02-24T06:06:36;16.27;;;6.30;;
11279;SDS011;5696;50.928;6.960;2023-02-24T06:09:04;15.30;;;5.88;;
11279;SDS011;5696;50.928;6.960;2023-02-24T06:11:35;14.70;;;5.00;;
11279;SDS011;5696;50.928;6.960;2023-02-24T06:14:03;15.32;;;5.38;;
11279;SDS011;5696;50.928;6.960;2023-02-24T06:16:31;17.85;;;6.07;;
11279;SDS011;5696;50.928;6.960;2023-02-24T06:19:01;13.25;;;5.22;;
11279;SDS011;5696;50.928;6.960;2023-02-24T06:25:06;22.23;;;6.20;;
11279;SDS011;5696;50.928;6.960;2023-02-24T06:27:32;16.42;;;6.18;;
11279;SDS011;5696;50.928;6.960;2023-02-24T06:30:00;17.80;;;6.05;;
11279;SDS011;5696;50.928;6.960;2023-02-24T06:39:10;17.15;;;5.05;;
11279;SDS011;5696;50.928;6.960;2023-02-24T06:41:38;16.27;;;5.22;;
11279;SDS011;5696;50.928;6.960;2023-02-24T06:44:04;13.30;;;4.40;;
11279;SDS011;5696;50.928;6.960;2023-02-24T06:46:30;13.88;;;4.30;;
11279;SDS011;5696;50.928;6.960;2023-02-24T06:48:56;14.90;;;4.38;;
11279;SDS011;5696;50.928;6.960;2023-02-24T06:51:25;35.85;;;7.22;;
11279;SDS011;5696;50.928;6.960;2023-02-24T06:53:54;19.98;;;6.50;;
11279;SDS011;5696;50.928;6.960;2023-02-24T06:56:23;13.40;;;4.45;;
11279;SDS011;5696;50.928;6.960;2023-02-24T06:58:50;14.52;;;4.65;;
11279;SDS011;5696;50.928;6.960;2023-02-24T07:01:23;16.80;;;4.50;;
11279;SDS011;5696;50.928;6.960;2023-02-24T07:03:51;15.05;;;3.97;;
11279;SDS011;5696;50.928;6.960;2023-02-24T07:06:26;11.77;;;3.33;;
11279;SDS011;5696;50.928;6.960;2023-02-24T07:08:58;11.82;;;3.95;;
11279;SDS011;5696;50.928;6.960;2023-02-24T07:11:24;10.77;;;3.20;;
11279;SDS011;5696;50.928;6.960;2023-02-24T07:13:50;13.20;;;3.90;;
11279;SDS011;5696;50.928;6.960;2023-02-24T07:16:19;12.07;;;3.38;;
11279;SDS011;5696;50.928;6.960;2023-02-24T07:18:51;7.50;;;3.13;;
11279;SDS011;5696;50.928;6.960;2023-02-24T07:21:18;11.57;;;3.53;;
11279;SDS011;5696;50.928;6.960;2023-02-24T07:23:47;12.23;;;3.83;;
11279;SDS011;5696;50.928;6.960;2023-02-24T07:26:17;11.52;;;3.38;;
11279;SDS011;5696;50.928;6.960;2023-02-24T07:28:45;10.55;;;3.85;;
11279;SDS011;5696;50.928;6.960;2023-02-24T07:34:33;16.27;;;5.63;;
11279;SDS011;5696;50.928;6.960;2023-02-24T07:37:03;13.57;;;3.90;;
11279;SDS011;5696;50.928;6.960;2023-02-24T07:39:31;13.27;;;4.15;;
11279;SDS011;5696;50.928;6.960;2023-02-24T07:41:57;12.27;;;3.97;;
11279;SDS011;5696;50.928;6.960;2023-02-24T07:44:23;14.43;;;4.38;;
11279;SDS011;5696;50.928;6.960;2023-02-24T07:46:49;13.90;;;4.05;;
11279;SDS011;5696;50.928;6.960;2023-02-24T07:49:16;11.10;;;4.05;;
11279;SDS011;5696;50.928;6.960;2023-02-24T07:51:45;14.93;;;4.43;;
11279;SDS011;5696;50.928;6.960;2023-02-24T07:54:17;17.45;;;4.18;;
11279;SDS011;5696;50.928;6.960;2023-02-24T07:56:45;15.98;;;4.10;;
11279;SDS011;5696;50.928;6.960;2023-02-24T07:59:12;11.75;;;4.28;;
11279;SDS011;5696;50.928;6.960;2023-02-24T08:01:40;15.35;;;3.72;;
11279;SDS011;5696;50.928;6.960;2023-02-24T08:04:14;12.73;;;4.40;;
11279;SDS011;5696;50.928;6.960;2023-02-24T08:06:44;11.32;;;3.92;;
11279;SDS011;5696;50.928;6.960;2023-02-24T08:09:18;12.73;;;4.05;;
11279;SDS011;5696;50.928;6.960;2023-02-24T08:14:10;14.98;;;3.85;;
11279;SDS011;5696;50.928;6.960;2023-02-24T08:16:43;11.48;;;3.75;;
11279;SDS011;5696;50.928;6.960;2023-02-24T08:19:17;9.25;;;3.35;;
11279;SDS011;5696;50.928;6.960;2023-02-24T08:21:47;8.20;;;3.28;;
11279;SDS011;5696;50.928;6.960;2023-02-24T08:24:19;10.00;;;3.25;;
11279;SDS011;5696;50.928;6.960;2023-02-24T08:26:48;10.45;;;3.53;;
11279;SDS011;5696;50.928;6.960;2023-02-24T08:29:32;10.70;;;4.57;;
11279;SDS011;5696;50.928;6.960;2023-02-24T08:32:10;14.02;;;3.40;;
11279;SDS011;5696;50.928;6.960;2023-02-24T08:34:36;14.65;;;3.65;;
11279;SDS011;5696;50.928;6.960;2023-02-24T08:37:02;14.98;;;3.42;;
11279;SDS011;5696;50.928;6.960;2023-02-24T08:39:30;12.57;;;3.47;;
11279;SDS011;5696;50.928;6.960;2023-02-24T08:42:00;11.93;;;3.75;;
11279;SDS011;5696;50.928;6.960;2023-02-24T08:44:26;13.68;;;4.03;;
11279;SDS011;5696;50.928;6.960;2023-02-24T08:46:52;14.70;;;4.22;;
11279;SDS011;5696;50.928;6.960;2023-02-24T08:49:19;17.13;;;4.53;;
